createdAt,value
2018-09-26T00:01:11.773Z,96715.38
2018-09-26T00:03:47.195Z,96719.89
2018-09-26T00:06:17.498Z,96714.87
2018-09-26T00:08:46.458Z,96711.94
2018-09-26T00:11:15.467Z,96717.00
2018-09-26T00:13:44.437Z,96707.16
2018-09-26T00:16:13.623Z,96712.41
2018-09-26T00:18:42.528Z,96708.58
2018-09-26T00:21:11.469Z,96708.59
2018-09-26T00:23:40.413Z,96715.55
2018-09-26T00:26:09.366Z,96717.28
2018-09-26T00:28:38.955Z,96715.09
2018-09-26T00:31:07.904Z,96716.77
2018-09-26T00:33:37.198Z,96711.95
2018-09-26T00:36:08.037Z,96712.06
2018-09-26T00:38:36.979Z,96713.75
2018-09-26T00:41:05.955Z,96706.24
2018-09-26T00:43:35.945Z,96709.79
2018-09-26T00:46:05.916Z,96714.41
2018-09-26T00:48:34.847Z,96706.69
2018-09-26T00:51:04.791Z,96719.05
2018-09-26T00:53:33.911Z,96717.94
2018-09-26T00:56:02.995Z,96724.22
2018-09-26T00:58:31.975Z,96717.90
2018-09-26T01:01:00.884Z,96715.30
2018-09-26T01:03:31.312Z,96710.72
2018-09-26T01:06:01.136Z,96718.58
2018-09-26T01:08:30.080Z,96711.00
2018-09-26T01:10:59.070Z,96720.48
2018-09-26T01:13:28.035Z,96721.66
2018-09-26T01:15:56.946Z,96721.97
2018-09-26T01:18:25.872Z,96728.20
2018-09-26T01:20:54.907Z,96731.82
2018-09-26T01:23:23.795Z,96732.71
2018-09-26T01:25:52.690Z,96733.42
2018-09-26T01:28:21.615Z,96728.36
2018-09-26T01:30:50.511Z,96725.63
2018-09-26T01:33:19.439Z,96732.85
2018-09-26T01:35:48.326Z,96729.95
2018-09-26T01:38:17.266Z,96729.11
2018-09-26T01:40:46.166Z,96731.25
2018-09-26T01:43:15.151Z,96733.33
2018-09-26T01:45:44.047Z,96733.10
2018-09-26T01:48:12.978Z,96731.72
2018-09-26T01:50:41.923Z,96725.63
2018-09-26T01:53:10.816Z,96721.33
2018-09-26T01:55:39.732Z,96727.23
2018-09-26T01:58:08.634Z,96730.14
2018-09-26T02:00:37.576Z,96724.74
2018-09-26T02:03:06.510Z,96722.27
2018-09-26T02:05:35.480Z,96729.72
2018-09-26T02:08:04.505Z,96721.20
2018-09-26T02:10:33.400Z,96723.27
2018-09-26T02:13:02.319Z,96722.08
2018-09-26T02:15:31.204Z,96730.39
2018-09-26T02:18:00.100Z,96716.13
2018-09-26T02:20:29.071Z,96724.88
2018-09-26T02:22:57.965Z,96730.57
2018-09-26T02:25:26.900Z,96740.56
2018-09-26T02:27:55.886Z,96735.41
2018-09-26T02:30:24.780Z,96736.72
2018-09-26T02:32:53.693Z,96723.45
2018-09-26T02:35:22.626Z,96719.33
2018-09-26T02:37:51.540Z,96714.70
2018-09-26T02:40:20.509Z,96711.63
2018-09-26T02:42:50.047Z,96712.94
2018-09-26T02:45:19.045Z,96716.26
2018-09-26T02:47:47.980Z,96713.63
2018-09-26T02:50:16.883Z,96717.38
2018-09-26T02:52:45.796Z,96718.44
2018-09-26T02:55:14.744Z,96712.59
2018-09-26T02:57:43.665Z,96719.86
2018-09-26T03:00:13.010Z,96720.91
2018-09-26T03:02:41.998Z,96714.99
2018-09-26T03:05:10.908Z,96717.13
2018-09-26T03:07:39.853Z,96716.88
2018-09-26T03:10:08.879Z,96714.98
2018-09-26T03:12:37.788Z,96709.13
2018-09-26T03:15:06.766Z,96716.16
2018-09-26T03:17:35.775Z,96717.76
2018-09-26T03:20:05.331Z,96711.55
2018-09-26T03:22:34.235Z,96710.74
2018-09-26T03:25:03.219Z,96719.26
2018-09-26T03:27:32.203Z,96717.29
2018-09-26T03:30:01.119Z,96712.27
2018-09-26T03:32:30.063Z,96711.14
2018-09-26T03:35:01.915Z,96712.82
2018-09-26T03:37:30.866Z,96716.02
2018-09-26T03:39:59.735Z,96717.31
2018-09-26T03:42:28.653Z,96715.76
2018-09-26T03:44:57.571Z,96717.61
2018-09-26T03:47:26.529Z,96719.67
2018-09-26T03:49:55.423Z,96710.61
2018-09-26T03:52:24.344Z,96718.77
2018-09-26T03:54:53.273Z,96720.14
2018-09-26T03:57:22.174Z,96725.88
2018-09-26T03:59:51.063Z,96724.05
2018-09-26T04:02:20.011Z,96722.97
2018-09-26T04:04:48.942Z,96723.14
2018-09-26T04:07:17.854Z,96726.86
2018-09-26T04:09:46.862Z,96732.46
2018-09-26T04:12:15.751Z,96732.94
2018-09-26T04:14:44.626Z,96733.98
2018-09-26T04:17:13.518Z,96742.36
2018-09-26T04:19:42.412Z,96742.65
2018-09-26T04:22:11.311Z,96744.48
2018-09-26T04:24:40.203Z,96747.45
2018-09-26T04:27:09.209Z,96750.52
2018-09-26T04:29:38.088Z,96756.88
2018-09-26T04:32:07.091Z,96757.98
2018-09-26T04:34:35.987Z,96759.08
2018-09-26T04:37:04.886Z,96763.66
2018-09-26T04:39:33.807Z,96762.45
2018-09-26T04:42:02.723Z,96766.98
2018-09-26T04:44:31.650Z,96769.01
2018-09-26T04:47:00.682Z,96772.73
2018-09-26T04:49:29.592Z,96773.66
2018-09-26T04:51:58.487Z,96780.76
2018-09-26T04:54:27.447Z,96776.29
2018-09-26T04:56:56.336Z,96787.58
2018-09-26T04:59:25.233Z,96783.25
2018-09-26T05:01:54.175Z,96787.84
2018-09-26T05:04:23.087Z,96789.86
2018-09-26T05:06:52.055Z,96794.84
2018-09-26T05:09:20.977Z,96792.84
2018-09-26T05:11:49.934Z,96793.08
2018-09-26T05:14:18.845Z,96787.72
2018-09-26T05:16:47.816Z,96784.87
2018-09-26T05:19:16.747Z,96791.78
2018-09-26T05:21:45.669Z,96791.37
2018-09-26T05:24:14.589Z,96790.17
2018-09-26T05:26:43.504Z,96806.08
2018-09-26T05:29:12.402Z,96810.56
2018-09-26T05:31:41.312Z,96811.47
2018-09-26T05:34:10.219Z,96812.00
2018-09-26T05:36:39.116Z,96814.41
2018-09-26T05:39:10.399Z,96817.78
2018-09-26T05:41:39.396Z,96807.86
2018-09-26T05:44:08.442Z,96819.59
2018-09-26T05:46:37.366Z,96815.25
2018-09-26T05:49:06.268Z,96826.04
2018-09-26T05:51:35.242Z,96825.40
2018-09-26T05:54:04.171Z,96834.33
2018-09-26T05:56:33.159Z,96834.08
2018-09-26T05:59:02.107Z,96834.41
2018-09-26T06:01:31.012Z,96836.72
2018-09-26T06:04:00.262Z,96837.69
2018-09-26T06:06:29.171Z,96835.75
2018-09-26T06:08:58.095Z,96841.45
2018-09-26T06:11:27.007Z,96834.52
2018-09-26T06:13:55.983Z,96834.09
2018-09-26T06:16:24.899Z,96834.84
2018-09-26T06:18:53.861Z,96840.14
2018-09-26T06:21:22.782Z,96841.58
2018-09-26T06:23:51.768Z,96844.29
2018-09-26T06:26:21.711Z,96844.17
2018-09-26T06:28:50.684Z,96845.14
2018-09-26T06:31:19.615Z,96843.60
2018-09-26T06:33:48.532Z,96841.71
2018-09-26T06:36:17.522Z,96849.61
2018-09-26T06:38:46.405Z,96851.40
2018-09-26T06:41:15.355Z,96851.98
2018-09-26T06:43:44.272Z,96857.34
2018-09-26T06:46:13.215Z,96853.77
2018-09-26T06:48:42.216Z,96860.56
2018-09-26T06:51:11.195Z,96862.94
2018-09-26T06:53:40.143Z,96861.88
2018-09-26T06:56:09.079Z,96861.27
2018-09-26T06:58:37.984Z,96861.61
2018-09-26T07:01:07.132Z,96865.64
2018-09-26T07:03:36.095Z,96860.44
2018-09-26T07:06:05.070Z,96859.95
2018-09-26T07:08:34.025Z,96859.24
2018-09-26T07:11:02.971Z,96863.66
2018-09-26T07:13:31.913Z,96863.75
2018-09-26T07:16:00.864Z,96868.17
2018-09-26T07:18:29.786Z,96867.83
2018-09-26T07:20:58.802Z,96866.65
2018-09-26T07:23:27.708Z,96852.38
2018-09-26T07:25:56.675Z,96863.33
2018-09-26T07:28:25.588Z,96865.58
2018-09-26T07:30:54.553Z,96859.99
2018-09-26T07:33:23.506Z,96859.98
2018-09-26T07:35:52.437Z,96852.75
2018-09-26T07:38:21.372Z,96861.07
2018-09-26T07:40:50.591Z,96852.87
2018-09-26T07:43:19.639Z,96865.48
2018-09-26T07:45:48.597Z,96860.95
2018-09-26T07:48:17.764Z,96861.20
2018-09-26T07:50:46.707Z,96865.12
2018-09-26T07:53:15.622Z,96861.20
2018-09-26T07:55:44.559Z,96862.73
2018-09-26T07:58:13.583Z,96856.19
2018-09-26T08:00:42.507Z,96859.77
2018-09-26T08:03:11.427Z,96859.16
2018-09-26T08:05:40.374Z,96854.17
2018-09-26T08:08:09.317Z,96859.98
2018-09-26T08:10:38.239Z,96865.11
2018-09-26T08:13:11.819Z,96861.28
2018-09-26T08:15:40.805Z,96855.13
2018-09-26T08:18:09.745Z,96850.72
2018-09-26T08:20:38.700Z,96856.88
2018-09-26T08:23:07.882Z,96850.71
2018-09-26T08:25:36.786Z,96845.59
2018-09-26T08:28:05.695Z,96851.05
2018-09-26T08:30:34.692Z,96842.75
2018-09-26T08:33:03.635Z,96843.05
2018-09-26T08:35:32.519Z,96841.95
2018-09-26T08:38:01.545Z,96843.45
2018-09-26T08:40:30.508Z,96837.02
2018-09-26T08:43:00.243Z,96837.95
2018-09-26T08:45:29.199Z,96853.77
2018-09-26T08:47:58.131Z,96848.48
2018-09-26T08:50:27.076Z,96845.75
2018-09-26T08:52:56.023Z,96861.04
2018-09-26T08:55:25.057Z,96864.19
2018-09-26T08:57:54.004Z,96857.66
2018-09-26T09:00:28.054Z,96861.16
2018-09-26T09:02:57.003Z,96855.34
2018-09-26T09:05:25.954Z,96865.12
2018-09-26T09:07:54.861Z,96883.69
2018-09-26T09:10:23.814Z,96865.20
2018-09-26T09:12:52.715Z,96870.22
2018-09-26T09:15:21.635Z,96854.27
2018-09-26T09:17:50.784Z,96849.03
2018-09-26T09:20:20.677Z,96856.78
2018-09-26T09:22:49.603Z,96859.52
2018-09-26T09:25:18.489Z,96861.88
2018-09-26T09:27:47.400Z,96853.44
2018-09-26T09:30:16.319Z,96853.68
2018-09-26T09:32:45.230Z,96880.08
2018-09-26T09:35:14.172Z,96877.47
2018-09-26T09:37:44.169Z,96860.12
2018-09-26T09:40:13.122Z,96859.40
2018-09-26T09:42:42.022Z,96864.48
2018-09-26T09:45:11.071Z,96865.75
2018-09-26T09:47:40.082Z,96872.69
2018-09-26T09:50:09.001Z,96890.17
2018-09-26T09:52:37.954Z,96869.72
2018-09-26T09:55:06.915Z,96859.59
2018-09-26T09:57:35.811Z,96875.20
2018-09-26T10:00:04.782Z,96878.31
2018-09-26T10:02:33.797Z,96871.16
2018-09-26T10:05:02.690Z,96862.69
2018-09-26T10:07:31.664Z,96859.70
2018-09-26T10:10:00.567Z,96867.41
2018-09-26T10:12:29.462Z,96868.41
2018-09-26T10:14:58.480Z,96855.67
2018-09-26T10:17:27.397Z,96846.00
2018-09-26T10:19:56.320Z,96846.48
2018-09-26T10:22:25.224Z,96850.39
2018-09-26T10:24:54.156Z,96855.13
2018-09-26T10:27:23.090Z,96845.00
2018-09-26T10:29:52.056Z,96856.81
2018-09-26T10:32:21.052Z,96861.58
2018-09-26T10:34:49.967Z,96838.79
2018-09-26T10:37:18.874Z,96837.25
2018-09-26T10:39:47.831Z,96853.58
2018-09-26T10:42:16.758Z,96838.45
2018-09-26T10:44:45.651Z,96832.31
2018-09-26T10:47:14.579Z,96846.67
2018-09-26T10:49:43.511Z,96841.05
2018-09-26T10:52:12.492Z,96843.84
2018-09-26T10:54:41.424Z,96833.48
2018-09-26T10:57:10.370Z,96855.91
2018-09-26T10:59:39.302Z,96836.63
2018-09-26T11:02:08.278Z,96841.38
2018-09-26T11:04:37.147Z,96830.80
2018-09-26T11:07:06.060Z,96823.58
2018-09-26T11:09:34.959Z,96831.17
2018-09-26T11:12:03.859Z,96832.23
2018-09-26T11:14:32.841Z,96828.89
2018-09-26T11:17:01.747Z,96815.68
2018-09-26T11:19:32.903Z,96817.81
2018-09-26T11:22:01.823Z,96814.58
2018-09-26T11:24:30.813Z,96800.50
2018-09-26T11:26:59.729Z,96819.20
2018-09-26T11:29:28.643Z,96808.47
2018-09-26T11:31:57.567Z,96803.68
2018-09-26T11:34:27.814Z,96793.36
2018-09-26T11:36:57.168Z,96800.70
2018-09-26T11:39:26.084Z,96819.22
2018-09-26T11:41:54.996Z,96820.23
2018-09-26T11:44:24.013Z,96829.38
2018-09-26T11:46:52.899Z,96819.82
2018-09-26T11:49:21.879Z,96797.81
2018-09-26T11:51:50.799Z,96824.19
2018-09-26T11:54:19.743Z,96794.83
2018-09-26T11:56:48.635Z,96799.42
2018-09-26T11:59:17.624Z,96807.15
2018-09-26T12:01:46.635Z,96791.53
2018-09-26T12:04:15.560Z,96794.81
2018-09-26T12:06:44.467Z,96794.73
2018-09-26T12:09:13.377Z,96799.22
2018-09-26T12:11:42.287Z,96785.73
2018-09-26T12:14:11.211Z,96794.47
2018-09-26T12:16:41.154Z,96775.15
2018-09-26T12:19:10.076Z,96768.63
2018-09-26T12:21:39.068Z,96758.23
2018-09-26T12:24:08.035Z,96758.05
2018-09-26T12:26:36.947Z,96767.33
2018-09-26T12:29:05.947Z,96751.41
2018-09-26T12:31:34.896Z,96756.52
2018-09-26T12:34:03.839Z,96759.03
2018-09-26T12:36:32.770Z,96759.66
2018-09-26T12:39:01.784Z,96759.36
2018-09-26T12:41:30.721Z,96770.39
2018-09-26T12:43:59.670Z,96754.22
2018-09-26T12:46:28.585Z,96741.77
2018-09-26T12:48:57.507Z,96754.16
2018-09-26T12:51:26.461Z,96756.50
2018-09-26T12:53:55.491Z,96759.13
2018-09-26T12:56:24.403Z,96761.56
2018-09-26T12:58:53.326Z,96774.59
2018-09-26T13:01:22.267Z,96762.28
2018-09-26T13:03:51.193Z,96759.70
2018-09-26T13:06:20.257Z,96769.35
2018-09-26T13:08:49.196Z,96774.70
2018-09-26T13:11:18.140Z,96768.34
2018-09-26T13:13:47.082Z,96757.95
2018-09-26T13:16:16.029Z,96772.23
2018-09-26T13:18:44.952Z,96745.73
2018-09-26T13:21:13.846Z,96756.56
2018-09-26T13:23:46.495Z,96745.09
2018-09-26T13:26:16.149Z,96749.66
2018-09-26T13:28:45.073Z,96735.31
2018-09-26T13:31:14.018Z,96737.31
2018-09-26T13:33:42.966Z,96743.08
2018-09-26T13:36:11.893Z,96757.77
2018-09-26T13:38:40.851Z,96740.61
2018-09-26T13:41:09.806Z,96736.19
2018-09-26T13:43:38.752Z,96764.81
2018-09-26T13:46:07.727Z,96740.41
2018-09-26T13:48:36.639Z,96727.88
2018-09-26T13:51:05.551Z,96730.09
2018-09-26T13:53:34.489Z,96728.58
2018-09-26T13:56:03.452Z,96732.27
2018-09-26T13:58:32.348Z,96737.44
2018-09-26T14:01:01.247Z,96739.70
2018-09-26T14:03:30.253Z,96724.59
2018-09-26T14:05:59.195Z,96734.22
2018-09-26T14:08:28.131Z,96726.58
2018-09-26T14:10:57.067Z,96752.56
2018-09-26T14:13:26.087Z,96747.47
2018-09-26T14:15:55.016Z,96739.20
2018-09-26T14:18:23.937Z,96749.62
2018-09-26T14:20:52.866Z,96731.27
2018-09-26T14:23:21.811Z,96727.45
2018-09-26T14:25:50.762Z,96738.37
2018-09-26T14:28:19.668Z,96732.86
2018-09-26T14:30:48.717Z,96738.34
2018-09-26T14:33:17.595Z,96732.66
2018-09-26T14:35:46.524Z,96729.17
2018-09-26T14:38:15.469Z,96727.69
2018-09-26T14:40:44.406Z,96742.45
2018-09-26T14:43:13.371Z,96747.83
2018-09-26T14:45:42.307Z,96729.69
2018-09-26T14:48:11.287Z,96738.86
2018-09-26T14:50:40.371Z,96726.17
2018-09-26T14:53:09.323Z,96730.10
2018-09-26T14:55:38.300Z,96733.00
2018-09-26T14:58:07.295Z,96744.52
2018-09-26T15:00:36.350Z,96746.14
2018-09-26T15:03:06.529Z,96742.80
2018-09-26T15:05:35.535Z,96751.63
2018-09-26T15:08:04.476Z,96758.11
2018-09-26T15:10:33.564Z,96737.31
2018-09-26T15:13:02.559Z,96744.80
2018-09-26T15:15:31.468Z,96748.83
2018-09-26T15:18:00.426Z,96759.87
2018-09-26T15:20:29.380Z,96753.94
2018-09-26T15:22:58.323Z,96759.87
2018-09-26T15:25:27.240Z,96768.15
2018-09-26T15:27:56.314Z,96759.89
2018-09-26T15:30:25.608Z,96768.63
2018-09-26T15:32:54.764Z,96762.95
2018-09-26T15:35:23.676Z,96765.98
2018-09-26T15:37:52.598Z,96773.83
2018-09-26T15:40:21.579Z,96772.04
2018-09-26T15:42:50.484Z,96764.38
2018-09-26T15:45:19.452Z,96768.57
2018-09-26T15:47:48.426Z,96782.75
2018-09-26T15:50:17.429Z,96767.88
2018-09-26T15:52:46.444Z,96770.25
2018-09-26T15:55:15.384Z,96775.53
2018-09-26T15:57:44.328Z,96776.11
2018-09-26T16:00:13.314Z,96780.12
2018-09-26T16:02:42.239Z,96756.97
2018-09-26T16:05:11.436Z,96767.65
2018-09-26T16:07:40.332Z,96774.42
2018-09-26T16:10:09.363Z,96771.44
2018-09-26T16:12:38.387Z,96781.45
2018-09-26T16:15:07.353Z,96785.39
2018-09-26T16:17:36.324Z,96791.83
2018-09-26T16:20:05.728Z,96791.09
2018-09-26T16:22:34.655Z,96796.38
2018-09-26T16:25:03.631Z,96788.02
2018-09-26T16:27:32.548Z,96789.23
2018-09-26T16:30:02.146Z,96796.95
2018-09-26T16:32:31.071Z,96794.09
2018-09-26T16:35:00.028Z,96799.22
2018-09-26T16:37:28.964Z,96797.67
2018-09-26T16:39:57.862Z,96792.07
2018-09-26T16:42:27.760Z,96802.20
2018-09-26T16:44:56.672Z,96803.15
2018-09-26T16:47:25.604Z,96810.04
2018-09-26T16:49:54.563Z,96821.47
2018-09-26T16:52:23.581Z,96821.94
2018-09-26T16:54:52.489Z,96820.63
2018-09-26T16:57:21.449Z,96822.04
2018-09-26T16:59:50.364Z,96822.99
2018-09-26T17:02:19.384Z,96823.73
2018-09-26T17:04:48.219Z,96817.88
2018-09-26T17:07:17.496Z,96816.45
2018-09-26T17:09:46.553Z,96820.50
2018-09-26T17:12:15.580Z,96819.91
2018-09-26T17:14:44.560Z,96827.28
2018-09-26T17:17:13.943Z,96826.92
2018-09-26T17:19:43.839Z,96827.41
2018-09-26T17:22:12.832Z,96827.18
2018-09-26T17:24:41.719Z,96826.80
2018-09-26T17:27:10.805Z,96823.35
2018-09-26T17:29:39.731Z,96827.28
2018-09-26T17:32:08.656Z,96828.84
2018-09-26T17:34:37.654Z,96838.83
2018-09-26T17:37:06.699Z,96840.48
2018-09-26T17:39:35.690Z,96846.20
2018-09-26T17:42:04.674Z,96845.72
2018-09-26T17:44:33.589Z,96848.21
2018-09-26T17:47:02.548Z,96855.23
2018-09-26T17:49:31.464Z,96855.02
2018-09-26T17:52:00.463Z,96857.28
2018-09-26T17:54:29.415Z,96851.44
2018-09-26T17:56:58.442Z,96857.72
2018-09-26T17:59:27.390Z,96850.34
2018-09-26T18:01:56.365Z,96850.95
2018-09-26T18:04:25.362Z,96847.64
2018-09-26T18:06:55.698Z,96850.47
2018-09-26T18:09:24.707Z,96851.78
2018-09-26T18:11:53.636Z,96856.19
2018-09-26T18:14:22.538Z,96850.12
2018-09-26T18:16:51.488Z,96854.53
2018-09-26T18:19:20.471Z,96855.02
2018-09-26T18:21:49.445Z,96851.19
2018-09-26T18:24:18.403Z,96836.34
2018-09-26T18:26:47.403Z,96832.77
2018-09-26T18:29:16.324Z,96835.87
2018-09-26T18:31:45.254Z,96832.30
2018-09-26T18:34:14.255Z,96828.37
2018-09-26T18:36:43.187Z,96831.69
2018-09-26T18:39:12.906Z,96827.89
2018-09-26T18:41:41.839Z,96834.08
2018-09-26T18:44:10.787Z,96840.72
2018-09-26T18:46:40.829Z,96841.45
2018-09-26T18:49:09.907Z,96840.63
2018-09-26T18:51:38.937Z,96839.80
2018-09-26T18:54:07.908Z,96840.02
2018-09-26T18:56:36.875Z,96833.25
2018-09-26T18:59:05.961Z,96832.87
2018-09-26T19:01:34.764Z,96839.88
2018-09-26T19:04:05.073Z,96846.31
2018-09-26T19:06:34.066Z,96853.91
2018-09-26T19:09:03.638Z,96851.64
2018-09-26T19:11:32.691Z,96850.66
2018-09-26T19:14:01.743Z,96844.23
2018-09-26T19:16:30.757Z,96850.64
2018-09-26T19:18:59.704Z,96857.28
2018-09-26T19:21:28.687Z,96857.41
2018-09-26T19:23:57.671Z,96861.00
2018-09-26T19:26:26.593Z,96854.91
2018-09-26T19:28:55.531Z,96858.09
2018-09-26T19:31:24.454Z,96859.39
2018-09-26T19:33:53.399Z,96850.89
2018-09-26T19:36:22.338Z,96853.80
2018-09-26T19:38:51.371Z,96856.27
2018-09-26T19:41:20.308Z,96861.94
2018-09-26T19:43:49.305Z,96863.22
2018-09-26T19:46:18.223Z,96867.58
2018-09-26T19:48:47.148Z,96865.41
2018-09-26T19:51:17.036Z,96869.05
2018-09-26T19:53:46.139Z,96864.22
2018-09-26T19:56:15.159Z,96871.78
2018-09-26T19:58:44.078Z,96866.50
2018-09-26T20:01:13.101Z,96872.98
2018-09-26T20:03:42.069Z,96865.00
2018-09-26T20:06:11.008Z,96858.80
2018-09-26T20:08:39.951Z,96860.70
2018-09-26T20:11:09.201Z,96859.44
2018-09-26T20:13:38.140Z,96860.66
2018-09-26T20:16:07.151Z,96852.83
2018-09-26T20:18:36.165Z,96856.80
2018-09-26T20:21:05.091Z,96858.80
2018-09-26T20:23:34.107Z,96859.23
2018-09-26T20:26:03.227Z,96863.61
2018-09-26T20:28:32.276Z,96865.70
2018-09-26T20:31:02.177Z,96867.27
2018-09-26T20:33:31.107Z,96864.30
2018-09-26T20:36:00.849Z,96864.78
2018-09-26T20:38:29.760Z,96861.92
2018-09-26T20:40:58.863Z,96858.84
2018-09-26T20:43:27.810Z,96859.20
2018-09-26T20:45:56.739Z,96865.61
2018-09-26T20:48:25.824Z,96859.31
2018-09-26T20:50:54.822Z,96864.06
2018-09-26T20:53:24.655Z,96860.93
2018-09-26T20:55:53.559Z,96860.87
2018-09-26T20:58:22.515Z,96859.41
2018-09-26T21:00:51.436Z,96859.61
2018-09-26T21:03:21.230Z,96857.70
2018-09-26T21:05:50.915Z,96850.76
2018-09-26T21:08:19.915Z,96853.42
2018-09-26T21:10:49.627Z,96848.98
2018-09-26T21:13:19.068Z,96852.47
2018-09-26T21:15:48.002Z,96855.73
2018-09-26T21:18:16.933Z,96846.42
2018-09-26T21:20:47.012Z,96854.66
2018-09-26T21:23:15.995Z,96861.70
2018-09-26T21:25:45.007Z,96857.93
2018-09-26T21:28:14.172Z,96860.70
2018-09-26T21:30:43.208Z,96856.16
2018-09-26T21:33:12.125Z,96866.58
2018-09-26T21:35:41.073Z,96862.90
2018-09-26T21:38:10.737Z,96861.89
2018-09-26T21:40:39.704Z,96864.48
2018-09-26T21:43:09.296Z,96865.20
2018-09-26T21:45:38.288Z,96868.50
2018-09-26T21:48:07.313Z,96869.19
2018-09-26T21:50:36.216Z,96871.00
2018-09-26T21:53:05.227Z,96867.92
2018-09-26T21:55:34.131Z,96861.85
2018-09-26T21:58:03.051Z,96858.86
2018-09-26T22:00:32.080Z,96851.45
2018-09-26T22:03:01.026Z,96857.98
2018-09-26T22:05:29.939Z,96860.69
2018-09-26T22:07:59.800Z,96854.39
2018-09-26T22:10:28.798Z,96853.41
2018-09-26T22:12:57.702Z,96857.85
2018-09-26T22:15:26.598Z,96854.48
2018-09-26T22:17:55.651Z,96850.51
2018-09-26T22:20:24.562Z,96852.75
2018-09-26T22:22:54.282Z,96856.55
2018-09-26T22:25:24.506Z,96858.98
2018-09-26T22:27:53.418Z,96861.87
2018-09-26T22:30:23.359Z,96854.05
2018-09-26T22:32:52.358Z,96850.17
2018-09-26T22:35:21.273Z,96848.52
2018-09-26T22:37:53.061Z,96847.95
2018-09-26T22:40:22.157Z,96853.97
2018-09-26T22:42:51.054Z,96854.36
2018-09-26T22:45:19.974Z,96854.17
2018-09-26T22:47:48.871Z,96849.83
2018-09-26T22:50:17.789Z,96854.28
2018-09-26T22:52:46.712Z,96849.55
2018-09-26T22:55:15.679Z,96852.70
2018-09-26T22:57:44.769Z,96854.56
2018-09-26T23:00:13.697Z,96847.50
2018-09-26T23:02:42.620Z,96851.20
2018-09-26T23:05:11.587Z,96852.31
2018-09-26T23:07:40.521Z,96854.31
2018-09-26T23:10:09.456Z,96851.25
2018-09-26T23:12:38.590Z,96846.69
2018-09-26T23:15:07.564Z,96844.19
2018-09-26T23:17:36.622Z,96843.46
2018-09-26T23:20:05.603Z,96840.56
2018-09-26T23:22:34.559Z,96842.53
2018-09-26T23:25:03.470Z,96839.92
2018-09-26T23:27:32.367Z,96834.73
2018-09-26T23:30:01.300Z,96831.50
2018-09-26T23:32:30.227Z,96833.44
2018-09-26T23:34:59.171Z,96835.50
2018-09-26T23:37:28.127Z,96832.50
2018-09-26T23:39:57.019Z,96831.20
2018-09-26T23:42:26.196Z,96823.88
2018-09-26T23:44:55.120Z,96821.39
2018-09-26T23:47:24.044Z,96821.08
2018-09-26T23:49:53.086Z,96814.05
2018-09-26T23:52:21.993Z,96813.23
2018-09-26T23:54:50.891Z,96813.76
2018-09-26T23:57:19.780Z,96807.10
2018-09-26T23:59:48.694Z,96808.20
